To NAV CANADA Home Page Login to a new session Search on AWWS site Feedback and Comments Disclaimer Vers la page française équivalente Tips FAQ What's new on the site To the Forecasts and Observations / NOTAM section To "File a Flight Plan" website Publications and other links Update of the User's profile FIC Telephone Numbers My Weather Data Folder Route Weather Data Regional Weather Data Local Weather Data To the Forecasts and Observations / NOTAM section
Request Generated 05/05/2016 at 10:29:43 UTC . Weather information available at that time is displayed.

METAR/TAF

SAINT JOHN/NB    

METAR CYSJ 051000Z 04009KT 4SM -RA BR OVC009 04/03 A2984 RMK SF8
SLP110=
METAR CYSJ 050900Z 05006KT 8SM -RA BR SCT008 OVC012 04/03 A2983 RMK
SF3SC5 SLP108=
METAR CYSJ 050800Z 05008KT 4SM -RA BR BKN010 OVC050 04/03 A2987 RMK
SC5SC3 SLP120=

TAF CYSJ 050538Z 0506/0518 03008KT P6SM -RA SCT020 OVC070 TEMPO
0506/0508 3SM -RA BR OVC020
FM050800 05010G20KT P6SM -RA OVC010 TEMPO 0508/0518 3SM -RA BR
OVC006
BECMG 0510/0512 04012G22KT
RMK NXT FCST BY 051200Z=
Your time UTC time
Weather data provided by Environment Canada and NAV CANADA